MDT,Max TemperatureF,Mean TemperatureF,Min TemperatureF,Max Dew PointF,MeanDew PointF,Min DewpointF,Max Humidity, Mean Humidity, Min Humidity, Max Sea Level PressureIn, Mean Sea Level PressureIn, Min Sea Level PressureIn, Max VisibilityMiles, Mean VisibilityMiles, Min VisibilityMiles, Max Wind SpeedMPH, Mean Wind SpeedMPH, Max Gust SpeedMPH,PrecipitationIn, CloudCover, Events, WindDirDegrees
2013-10-1,51,40,29,34,30,26,92,69,46,30.12,30.02,29.99,10,10,10,20,4,26,0.01,5,,194
2013-10-2,50,39,27,32,27,20,92,62,31,30.12,30.00,29.89,10,10,8,13,5,17,0.03,3,Rain-Snow,307
2013-10-3,47,40,33,31,29,25,89,66,42,30.30,30.02,29.89,10,9,2,25,12,37,0.03,7,Snow,323
2013-10-4,53,41,28,28,24,19,78,57,35,30.47,30.40,30.30,10,10,6,13,5,18,0.00,0,,336
2013-10-5,58,41,23,30,25,20,88,59,30,30.53,30.47,30.40,10,10,9,9,2,13,0.00,0,,309
2013-10-6,66,46,25,32,26,16,92,54,15,30.42,30.28,30.11,10,10,10,14,3,17,0.00,0,,129
2013-10-7,60,44,28,34,28,19,92,57,21,30.09,29.98,29.90,10,10,10,21,5,26,0.00,2,,177
2013-10-8,45,37,28,34,31,25,96,77,57,29.98,29.92,29.87,10,8,1,14,2,17,0.10,6,Rain,352
2013-10-9,52,39,26,36,30,25,100,76,52,29.96,29.89,29.83,10,6,0,14,4,18,0.00,2,Fog,285
2013-10-10,52,40,27,33,28,25,92,65,38,29.98,29.83,29.78,10,7,1,16,4,22,0.00,2,,312
2013-10-11,51,39,26,29,26,22,85,59,33,30.11,30.04,29.97,10,10,10,12,2,16,0.00,1,,341
2013-10-12,49,40,30,32,29,26,85,67,49,30.05,30.01,29.96,10,10,10,10,2,15,0.00,6,,357
2013-10-13,50,40,30,32,30,26,89,68,46,30.19,30.08,30.01,10,10,10,17,8,24,0.00,4,,352
2013-10-14,51,40,29,27,25,20,75,52,28,30.32,30.25,30.19,10,10,10,16,7,21,0.00,1,,345
2013-10-15,52,38,24,27,24,20,88,60,32,30.41,30.32,30.27,10,10,10,10,3,14,0.00,0,,300
2013-10-16,53,39,25,30,26,21,88,63,38,30.26,30.20,30.12,10,10,10,9,2,13,0.00,2,,321
2013-10-17,52,38,24,29,26,21,92,66,39,30.26,30.20,30.14,10,10,10,18,5,26,0.00,0,,321
2013-10-18,54,38,21,29,25,19,92,64,35,30.34,30.29,30.24,10,10,10,10,2,13,0.00,0,,218
2013-10-19,59,41,23,31,26,20,88,61,33,30.29,30.21,30.12,10,10,10,8,1,10,0.00,0,,355
2013-10-20,59,42,24,32,27,22,81,57,33,30.20,30.15,30.11,10,10,10,14,4,18,0.00,0,,337
2013-10-21,61,45,28,34,31,27,92,60,27,30.26,30.20,30.14,10,10,7,10,3,13,0.00,0,,322
2013-10-22,64,46,28,37,32,26,92,64,36,30.30,30.22,30.15,10,10,10,9,2,12,0.00,0,,296
2013-10-23,64,46,28,37,30,25,92,62,31,30.24,30.17,30.11,10,10,9,8,2,10,0.00,0,,313
2013-10-24,66,47,27,35,29,24,89,56,23,30.22,30.16,30.10,10,10,8,10,1,13,0.00,0,,345
2013-10-25,65,46,26,32,28,24,85,55,24,30.33,30.25,30.17,10,10,10,10,1,14,0.00,0,,308
2013-10-26,62,44,26,33,28,23,85,55,25,30.38,30.29,30.19,10,10,7,7,1,9,0.00,0,,357
2013-10-27,56,40,24,31,27,21,88,63,38,30.16,29.83,29.60,10,10,8,15,2,18,0.00,2,,299
2013-10-28,46,39,32,32,26,20,82,64,45,29.69,29.59,29.52,10,10,10,17,9,26,T,3,,7
2013-10-29,48,39,30,28,25,21,88,67,45,29.95,29.88,29.74,10,10,10,10,2,14,0.00,5,,281
2013-10-30,41,34,27,29,28,24,85,75,64,30.15,30.03,29.95,10,10,10,9,2,12,0.00,7,,276
2013-10-31,36,30,23,33,29,20,96,89,81,30.27,30.18,30.12,10,7,1,7,1,7,0.06,7,Snow,24